KJOT/JOT METAR and TAF weather

Enter ICAO airport designator
Station Type Date Time Source
KJOT METAR 2021/09/28 04:55 UTC NOAA

KJOT 280455Z AUTO 03005KT 10SM CLR 18/15 A2991 RMK AO2 T01760153


Station Type Date Time Source
KJOT Decoded METAR 2021/09/28 04:55 UTC NOAA

Joliet, Joliet Regional Airport, IL, United States (KJOT) 41-31-05N 088-10-31W
Sep 28, 2021 - 12:55 AM EDT / 2021.09.28 0455 UTC
Wind: from the NNE (030 degrees) at 6 MPH (5 KT):0
Visibility: 10 mile(s):0
Sky conditions: clear
Temperature: 63.7 F (17.6 C)
Dew Point: 59.5 F (15.3 C)
Relative Humidity: 86%
Pressure (altimeter): 29.91 in. Hg (1012 hPa)
ob: KJOT 280455Z AUTO 03005KT 10SM CLR 18/15 A2991 RMK AO2 T01760153
cycle: 5

Station Type Date Time Source
KJOT TAF UTC NOAA

Error!

Example: see airport list